sensor_id;sensor_type;location;lat;lon;timestamp;pressure;altitude;pressure_sealevel;temperature
5571;BMP180;2808;51.240;6.794;2023-02-22T00:00:20;101039.00;;;7.00
5571;BMP180;2808;51.240;6.794;2023-02-22T00:02:55;101032.00;;;6.80
5571;BMP180;2808;51.240;6.794;2023-02-22T00:05:26;101026.00;;;6.80
5571;BMP180;2808;51.240;6.794;2023-02-22T00:07:57;101036.00;;;6.80
5571;BMP180;2808;51.240;6.794;2023-02-22T00:10:26;101030.00;;;6.70
5571;BMP180;2808;51.240;6.794;2023-02-22T00:12:55;101033.00;;;6.60
5571;BMP180;2808;51.240;6.794;2023-02-22T00:15:23;101029.00;;;6.50
5571;BMP180;2808;51.240;6.794;2023-02-22T00:17:53;101019.00;;;6.50
5571;BMP180;2808;51.240;6.794;2023-02-22T00:20:22;101019.00;;;6.40
5571;BMP180;2808;51.240;6.794;2023-02-22T00:22:50;101022.00;;;6.30
5571;BMP180;2808;51.240;6.794;2023-02-22T00:25:22;101018.00;;;6.20
5571;BMP180;2808;51.240;6.794;2023-02-22T00:27:51;101019.00;;;6.10
5571;BMP180;2808;51.240;6.794;2023-02-22T00:30:23;101020.00;;;6.00
5571;BMP180;2808;51.240;6.794;2023-02-22T00:32:52;101013.00;;;6.00
5571;BMP180;2808;51.240;6.794;2023-02-22T00:35:24;101020.00;;;6.00
5571;BMP180;2808;51.240;6.794;2023-02-22T00:37:53;101012.00;;;5.90
5571;BMP180;2808;51.240;6.794;2023-02-22T00:40:27;101020.00;;;5.90
5571;BMP180;2808;51.240;6.794;2023-02-22T00:42:56;101017.00;;;5.80
5571;BMP180;2808;51.240;6.794;2023-02-22T00:45:29;101014.00;;;5.80
5571;BMP180;2808;51.240;6.794;2023-02-22T00:47:57;101006.00;;;5.70
5571;BMP180;2808;51.240;6.794;2023-02-22T00:50:26;100999.00;;;5.70
5571;BMP180;2808;51.240;6.794;2023-02-22T00:52:54;101004.00;;;5.60
5571;BMP180;2808;51.240;6.794;2023-02-22T00:55:27;101004.00;;;5.60
5571;BMP180;2808;51.240;6.794;2023-02-22T00:57:56;101011.00;;;5.60
5571;BMP180;2808;51.240;6.794;2023-02-22T01:00:25;101001.00;;;5.50
5571;BMP180;2808;51.240;6.794;2023-02-22T01:02:53;100996.00;;;5.50
5571;BMP180;2808;51.240;6.794;2023-02-22T01:05:23;100996.00;;;5.50
5571;BMP180;2808;51.240;6.794;2023-02-22T01:07:51;100989.00;;;5.50
5571;BMP180;2808;51.240;6.794;2023-02-22T01:10:20;100985.00;;;5.60
5571;BMP180;2808;51.240;6.794;2023-02-22T01:12:49;100992.00;;;5.60
5571;BMP180;2808;51.240;6.794;2023-02-22T01:15:19;100988.00;;;5.60
5571;BMP180;2808;51.240;6.794;2023-02-22T01:17:49;100980.00;;;5.50
5571;BMP180;2808;51.240;6.794;2023-02-22T01:20:18;100979.00;;;5.50
5571;BMP180;2808;51.240;6.794;2023-02-22T01:22:49;100982.00;;;5.50
5571;BMP180;2808;51.240;6.794;2023-02-22T01:25:19;100971.00;;;5.50
5571;BMP180;2808;51.240;6.794;2023-02-22T01:27:49;100979.00;;;5.50
5571;BMP180;2808;51.240;6.794;2023-02-22T01:30:21;100975.00;;;5.60
5571;BMP180;2808;51.240;6.794;2023-02-22T01:32:49;100977.00;;;5.60
5571;BMP180;2808;51.240;6.794;2023-02-22T01:35:22;100977.00;;;5.70
5571;BMP180;2808;51.240;6.794;2023-02-22T01:37:49;100977.00;;;5.70
5571;BMP180;2808;51.240;6.794;2023-02-22T01:40:20;100970.00;;;5.70
5571;BMP180;2808;51.240;6.794;2023-02-22T01:42:52;100958.00;;;5.80
5571;BMP180;2808;51.240;6.794;2023-02-22T01:45:44;100953.00;;;5.80
5571;BMP180;2808;51.240;6.794;2023-02-22T01:48:20;100952.00;;;5.80
5571;BMP180;2808;51.240;6.794;2023-02-22T01:50:53;100956.00;;;5.70
5571;BMP180;2808;51.240;6.794;2023-02-22T01:53:24;100948.00;;;5.70
5571;BMP180;2808;51.240;6.794;2023-02-22T01:55:53;100951.00;;;5.80
5571;BMP180;2808;51.240;6.794;2023-02-22T01:58:24;100945.00;;;5.80
5571;BMP180;2808;51.240;6.794;2023-02-22T02:00:54;100950.00;;;5.80
5571;BMP180;2808;51.240;6.794;2023-02-22T02:03:27;100945.00;;;5.90
5571;BMP180;2808;51.240;6.794;2023-02-22T02:05:57;100949.00;;;5.90
5571;BMP180;2808;51.240;6.794;2023-02-22T02:08:32;100939.00;;;5.90
5571;BMP180;2808;51.240;6.794;2023-02-22T02:11:04;100937.00;;;5.90
5571;BMP180;2808;51.240;6.794;2023-02-22T02:13:33;100940.00;;;6.00
5571;BMP180;2808;51.240;6.794;2023-02-22T02:16:01;100932.00;;;6.00
5571;BMP180;2808;51.240;6.794;2023-02-22T02:18:29;100926.00;;;6.00
5571;BMP180;2808;51.240;6.794;2023-02-22T02:21:28;100920.00;;;6.00
5571;BMP180;2808;51.240;6.794;2023-02-22T02:24:24;100933.00;;;6.00
5571;BMP180;2808;51.240;6.794;2023-02-22T02:27:13;100927.00;;;6.00
5571;BMP180;2808;51.240;6.794;2023-02-22T02:32:54;100922.00;;;6.10
5571;BMP180;2808;51.240;6.794;2023-02-22T02:35:32;100920.00;;;6.10
5571;BMP180;2808;51.240;6.794;2023-02-22T02:38:06;100920.00;;;6.10
5571;BMP180;2808;51.240;6.794;2023-02-22T02:40:40;100911.00;;;6.10
5571;BMP180;2808;51.240;6.794;2023-02-22T02:43:16;100920.00;;;6.10
5571;BMP180;2808;51.240;6.794;2023-02-22T02:45:48;100914.00;;;6.10
5571;BMP180;2808;51.240;6.794;2023-02-22T02:48:22;100904.00;;;6.10
5571;BMP180;2808;51.240;6.794;2023-02-22T02:50:53;100906.00;;;6.10
5571;BMP180;2808;51.240;6.794;2023-02-22T02:53:26;100904.00;;;6.10
5571;BMP180;2808;51.240;6.794;2023-02-22T02:55:56;100917.00;;;6.10
5571;BMP180;2808;51.240;6.794;2023-02-22T02:58:24;100904.00;;;6.10
5571;BMP180;2808;51.240;6.794;2023-02-22T03:00:53;100897.00;;;6.10
5571;BMP180;2808;51.240;6.794;2023-02-22T03:03:56;100895.00;;;6.10
5571;BMP180;2808;51.240;6.794;2023-02-22T03:06:49;100885.00;;;6.00
5571;BMP180;2808;51.240;6.794;2023-02-22T03:09:30;100888.00;;;6.00
5571;BMP180;2808;51.240;6.794;2023-02-22T03:12:13;100878.00;;;6.00
5571;BMP180;2808;51.240;6.794;2023-02-22T03:14:50;100889.00;;;6.10
5571;BMP180;2808;51.240;6.794;2023-02-22T03:17:25;100887.00;;;6.10
5571;BMP180;2808;51.240;6.794;2023-02-22T03:20:01;100882.00;;;6.10
5571;BMP180;2808;51.240;6.794;2023-02-22T03:22:38;100879.00;;;6.10
5571;BMP180;2808;51.240;6.794;2023-02-22T03:25:12;100893.00;;;6.20
5571;BMP180;2808;51.240;6.794;2023-02-22T03:27:44;100867.00;;;6.10
5571;BMP180;2808;51.240;6.794;2023-02-22T03:30:17;100881.00;;;6.10
5571;BMP180;2808;51.240;6.794;2023-02-22T03:32:48;100884.00;;;6.20
5571;BMP180;2808;51.240;6.794;2023-02-22T03:35:21;100881.00;;;6.10
5571;BMP180;2808;51.240;6.794;2023-02-22T03:37:54;100885.00;;;6.20
5571;BMP180;2808;51.240;6.794;2023-02-22T03:40:25;100878.00;;;6.20
5571;BMP180;2808;51.240;6.794;2023-02-22T03:42:57;100886.00;;;6.10
5571;BMP180;2808;51.240;6.794;2023-02-22T03:45:27;100877.00;;;6.20
5571;BMP180;2808;51.240;6.794;2023-02-22T03:48:02;100872.00;;;6.20
5571;BMP180;2808;51.240;6.794;2023-02-22T03:50:35;100876.00;;;6.20
5571;BMP180;2808;51.240;6.794;2023-02-22T03:53:04;100883.00;;;6.20
5571;BMP180;2808;51.240;6.794;2023-02-22T03:55:33;100882.00;;;6.10
5571;BMP180;2808;51.240;6.794;2023-02-22T03:58:03;100886.00;;;6.10
5571;BMP180;2808;51.240;6.794;2023-02-22T04:00:33;100895.00;;;6.10
5571;BMP180;2808;51.240;6.794;2023-02-22T04:03:02;100889.00;;;6.10
5571;BMP180;2808;51.240;6.794;2023-02-22T04:05:31;100887.00;;;6.10
5571;BMP180;2808;51.240;6.794;2023-02-22T04:07:58;100878.00;;;6.00
5571;BMP180;2808;51.240;6.794;2023-02-22T04:10:26;100876.00;;;6.00
5571;BMP180;2808;51.240;6.794;2023-02-22T04:12:54;100882.00;;;6.00
5571;BMP180;2808;51.240;6.794;2023-02-22T04:15:23;100881.00;;;6.00
5571;BMP180;2808;51.240;6.794;2023-02-22T04:17:50;100880.00;;;6.10
5571;BMP180;2808;51.240;6.794;2023-02-22T04:20:18;100884.00;;;6.10
5571;BMP180;2808;51.240;6.794;2023-02-22T04:22:52;100874.00;;;6.00
5571;BMP180;2808;51.240;6.794;2023-02-22T04:25:20;100874.00;;;6.00
5571;BMP180;2808;51.240;6.794;2023-02-22T04:27:48;100875.00;;;6.10
5571;BMP180;2808;51.240;6.794;2023-02-22T04:30:17;100863.00;;;6.00
5571;BMP180;2808;51.240;6.794;2023-02-22T04:32:45;100875.00;;;6.00
5571;BMP180;2808;51.240;6.794;2023-02-22T04:35:13;100881.00;;;6.10
5571;BMP180;2808;51.240;6.794;2023-02-22T04:37:40;100865.00;;;6.10
5571;BMP180;2808;51.240;6.794;2023-02-22T04:40:10;100861.00;;;6.10
5571;BMP180;2808;51.240;6.794;2023-02-22T04:42:38;100858.00;;;6.00
5571;BMP180;2808;51.240;6.794;2023-02-22T04:45:07;100854.00;;;6.00
5571;BMP180;2808;51.240;6.794;2023-02-22T04:47:35;100849.00;;;6.00
5571;BMP180;2808;51.240;6.794;2023-02-22T04:50:03;100854.00;;;6.00
5571;BMP180;2808;51.240;6.794;2023-02-22T04:52:31;100853.00;;;5.90
5571;BMP180;2808;51.240;6.794;2023-02-22T04:54:58;100848.00;;;6.00
5571;BMP180;2808;51.240;6.794;2023-02-22T04:57:27;100850.00;;;6.00
5571;BMP180;2808;51.240;6.794;2023-02-22T04:59:55;100843.00;;;6.00
5571;BMP180;2808;51.240;6.794;2023-02-22T05:02:22;100836.00;;;6.00
5571;BMP180;2808;51.240;6.794;2023-02-22T05:04:50;100829.00;;;6.00
5571;BMP180;2808;51.240;6.794;2023-02-22T05:07:17;100835.00;;;5.90
5571;BMP180;2808;51.240;6.794;2023-02-22T05:09:45;100833.00;;;5.90
5571;BMP180;2808;51.240;6.794;2023-02-22T05:12:12;100830.00;;;6.00
5571;BMP180;2808;51.240;6.794;2023-02-22T05:14:41;100811.00;;;5.90
5571;BMP180;2808;51.240;6.794;2023-02-22T05:17:09;100817.00;;;5.90
5571;BMP180;2808;51.240;6.794;2023-02-22T05:19:37;100819.00;;;6.00
5571;BMP180;2808;51.240;6.794;2023-02-22T05:22:04;100823.00;;;6.00
5571;BMP180;2808;51.240;6.794;2023-02-22T05:24:34;100815.00;;;6.00
5571;BMP180;2808;51.240;6.794;2023-02-22T05:27:02;100807.00;;;6.00
5571;BMP180;2808;51.240;6.794;2023-02-22T05:29:30;100803.00;;;6.00
5571;BMP180;2808;51.240;6.794;2023-02-22T05:31:58;100807.00;;;6.00
5571;BMP180;2808;51.240;6.794;2023-02-22T05:34:27;100804.00;;;6.00
5571;BMP180;2808;51.240;6.794;2023-02-22T05:36:55;100801.00;;;5.90
5571;BMP180;2808;51.240;6.794;2023-02-22T05:39:23;100807.00;;;5.90
5571;BMP180;2808;51.240;6.794;2023-02-22T05:41:50;100799.00;;;5.90
5571;BMP180;2808;51.240;6.794;2023-02-22T05:44:18;100807.00;;;5.90
5571;BMP180;2808;51.240;6.794;2023-02-22T05:46:47;100811.00;;;5.80
5571;BMP180;2808;51.240;6.794;2023-02-22T05:49:16;100812.00;;;5.80
5571;BMP180;2808;51.240;6.794;2023-02-22T05:51:43;100802.00;;;5.70
5571;BMP180;2808;51.240;6.794;2023-02-22T05:54:11;100799.00;;;5.70
5571;BMP180;2808;51.240;6.794;2023-02-22T05:56:38;100799.00;;;5.70
5571;BMP180;2808;51.240;6.794;2023-02-22T05:59:05;100803.00;;;5.70
5571;BMP180;2808;51.240;6.794;2023-02-22T06:01:33;100799.00;;;5.70
5571;BMP180;2808;51.240;6.794;2023-02-22T06:04:01;100790.00;;;5.60
5571;BMP180;2808;51.240;6.794;2023-02-22T06:06:30;100795.00;;;5.60
5571;BMP180;2808;51.240;6.794;2023-02-22T06:08:57;100796.00;;;5.60
5571;BMP180;2808;51.240;6.794;2023-02-22T06:11:24;100798.00;;;5.60
5571;BMP180;2808;51.240;6.794;2023-02-22T06:13:53;100799.00;;;5.60
5571;BMP180;2808;51.240;6.794;2023-02-22T06:16:21;100784.00;;;5.60
5571;BMP180;2808;51.240;6.794;2023-02-22T06:18:49;100789.00;;;5.60
5571;BMP180;2808;51.240;6.794;2023-02-22T06:21:16;100795.00;;;5.50
5571;BMP180;2808;51.240;6.794;2023-02-22T06:23:45;100792.00;;;5.50
5571;BMP180;2808;51.240;6.794;2023-02-22T06:26:15;100789.00;;;5.50
5571;BMP180;2808;51.240;6.794;2023-02-22T06:28:43;100786.00;;;5.50
5571;BMP180;2808;51.240;6.794;2023-02-22T06:31:20;100788.00;;;5.50
5571;BMP180;2808;51.240;6.794;2023-02-22T06:33:47;100782.00;;;5.50
5571;BMP180;2808;51.240;6.794;2023-02-22T06:36:15;100787.00;;;5.40
5571;BMP180;2808;51.240;6.794;2023-02-22T06:38:46;100791.00;;;5.40
5571;BMP180;2808;51.240;6.794;2023-02-22T06:41:14;100785.00;;;5.40
5571;BMP180;2808;51.240;6.794;2023-02-22T06:43:41;100791.00;;;5.40
5571;BMP180;2808;51.240;6.794;2023-02-22T06:46:09;100784.00;;;5.30
5571;BMP180;2808;51.240;6.794;2023-02-22T06:48:37;100790.00;;;5.30
5571;BMP180;2808;51.240;6.794;2023-02-22T06:51:06;100792.00;;;5.20
5571;BMP180;2808;51.240;6.794;2023-02-22T06:53:34;100787.00;;;5.10
5571;BMP180;2808;51.240;6.794;2023-02-22T06:56:03;100786.00;;;5.20
5571;BMP180;2808;51.240;6.794;2023-02-22T06:58:32;100790.00;;;5.10
5571;BMP180;2808;51.240;6.794;2023-02-22T07:01:01;100780.00;;;5.20
5571;BMP180;2808;51.240;6.794;2023-02-22T07:03:29;100778.00;;;5.20
5571;BMP180;2808;51.240;6.794;2023-02-22T07:05:56;100785.00;;;5.20
5571;BMP180;2808;51.240;6.794;2023-02-22T07:08:24;100776.00;;;5.30
5571;BMP180;2808;51.240;6.794;2023-02-22T07:10:51;100779.00;;;5.30
5571;BMP180;2808;51.240;6.794;2023-02-22T07:13:20;100782.00;;;5.40
5571;BMP180;2808;51.240;6.794;2023-02-22T07:15:47;100777.00;;;5.40
5571;BMP180;2808;51.240;6.794;2023-02-22T07:18:15;100772.00;;;5.40
5571;BMP180;2808;51.240;6.794;2023-02-22T07:20:42;100775.00;;;5.50
5571;BMP180;2808;51.240;6.794;2023-02-22T07:23:13;100776.00;;;5.50
5571;BMP180;2808;51.240;6.794;2023-02-22T07:25:41;100773.00;;;5.60
5571;BMP180;2808;51.240;6.794;2023-02-22T07:28:09;100774.00;;;5.70
5571;BMP180;2808;51.240;6.794;2023-02-22T07:30:39;100777.00;;;5.80
5571;BMP180;2808;51.240;6.794;2023-02-22T07:33:08;100772.00;;;5.90
5571;BMP180;2808;51.240;6.794;2023-02-22T07:35:38;100762.00;;;6.00
5571;BMP180;2808;51.240;6.794;2023-02-22T07:38:06;100771.00;;;6.10
5571;BMP180;2808;51.240;6.794;2023-02-22T07:40:35;100762.00;;;6.20
5571;BMP180;2808;51.240;6.794;2023-02-22T07:43:14;100761.00;;;6.30
5571;BMP180;2808;51.240;6.794;2023-02-22T07:45:44;100763.00;;;6.40
5571;BMP180;2808;51.240;6.794;2023-02-22T07:48:20;100762.00;;;6.50
5571;BMP180;2808;51.240;6.794;2023-02-22T07:50:49;100753.00;;;6.60
5571;BMP180;2808;51.240;6.794;2023-02-22T07:53:19;100755.00;;;6.70
5571;BMP180;2808;51.240;6.794;2023-02-22T07:56:03;100756.00;;;6.90
5571;BMP180;2808;51.240;6.794;2023-02-22T07:58:32;100753.00;;;7.00
5571;BMP180;2808;51.240;6.794;2023-02-22T08:01:08;100761.00;;;7.20
5571;BMP180;2808;51.240;6.794;2023-02-22T08:03:49;100749.00;;;7.40
5571;BMP180;2808;51.240;6.794;2023-02-22T08:06:17;100748.00;;;7.50
5571;BMP180;2808;51.240;6.794;2023-02-22T08:08:46;100746.00;;;7.70
5571;BMP180;2808;51.240;6.794;2023-02-22T08:14:35;100741.00;;;8.00
5571;BMP180;2808;51.240;6.794;2023-02-22T08:17:10;100740.00;;;8.00
5571;BMP180;2808;51.240;6.794;2023-02-22T08:19:40;100737.00;;;8.10
5571;BMP180;2808;51.240;6.794;2023-02-22T08:22:11;100730.00;;;8.30
5571;BMP180;2808;51.240;6.794;2023-02-22T08:24:47;100727.00;;;8.30
5571;BMP180;2808;51.240;6.794;2023-02-22T08:27:28;100727.00;;;8.50
5571;BMP180;2808;51.240;6.794;2023-02-22T08:30:01;100719.00;;;8.50
5571;BMP180;2808;51.240;6.794;2023-02-22T08:32:34;100720.00;;;8.80
5571;BMP180;2808;51.240;6.794;2023-02-22T08:35:02;100719.00;;;9.00
5571;BMP180;2808;51.240;6.794;2023-02-22T08:37:29;100721.00;;;9.00
5571;BMP180;2808;51.240;6.794;2023-02-22T08:39:57;100728.00;;;9.00
5571;BMP180;2808;51.240;6.794;2023-02-22T08:42:24;100710.00;;;9.20
5571;BMP180;2808;51.240;6.794;2023-02-22T08:44:52;100710.00;;;9.20
5571;BMP180;2808;51.240;6.794;2023-02-22T08:47:28;100708.00;;;9.30
5571;BMP180;2808;51.240;6.794;2023-02-22T08:49:56;100714.00;;;9.40
5571;BMP180;2808;51.240;6.794;2023-02-22T08:52:24;100708.00;;;9.40
5571;BMP180;2808;51.240;6.794;2023-02-22T08:54:53;100711.00;;;9.40
5571;BMP180;2808;51.240;6.794;2023-02-22T08:57:21;100719.00;;;9.50
5571;BMP180;2808;51.240;6.794;2023-02-22T08:59:49;100722.00;;;9.70
5571;BMP180;2808;51.240;6.794;2023-02-22T09:02:20;100719.00;;;9.80
5571;BMP180;2808;51.240;6.794;2023-02-22T09:04:50;100710.00;;;9.80
5571;BMP180;2808;51.240;6.794;2023-02-22T09:07:20;100715.00;;;10.00
5571;BMP180;2808;51.240;6.794;2023-02-22T09:09:48;100710.00;;;10.00
5571;BMP180;2808;51.240;6.794;2023-02-22T09:12:15;100712.00;;;10.00
5571;BMP180;2808;51.240;6.794;2023-02-22T09:14:43;100702.00;;;10.00
5571;BMP180;2808;51.240;6.794;2023-02-22T09:17:13;100699.00;;;10.20
5571;BMP180;2808;51.240;6.794;2023-02-22T09:19:40;100707.00;;;10.30
5571;BMP180;2808;51.240;6.794;2023-02-22T09:22:08;100705.00;;;10.30
5571;BMP180;2808;51.240;6.794;2023-02-22T09:24:39;100707.00;;;10.40
5571;BMP180;2808;51.240;6.794;2023-02-22T09:27:08;100710.00;;;10.40
5571;BMP180;2808;51.240;6.794;2023-02-22T09:29:37;100706.00;;;10.50
5571;BMP180;2808;51.240;6.794;2023-02-22T09:32:07;100703.00;;;10.60
5571;BMP180;2808;51.240;6.794;2023-02-22T09:34:35;100711.00;;;10.80
5571;BMP180;2808;51.240;6.794;2023-02-22T09:37:02;100706.00;;;10.90
5571;BMP180;2808;51.240;6.794;2023-02-22T09:39:36;100706.00;;;11.00
5571;BMP180;2808;51.240;6.794;2023-02-22T09:42:12;100694.00;;;11.00
5571;BMP180;2808;51.240;6.794;2023-02-22T09:44:47;100699.00;;;11.10
5571;BMP180;2808;51.240;6.794;2023-02-22T09:47:21;100702.00;;;11.10
5571;BMP180;2808;51.240;6.794;2023-02-22T09:50:01;100699.00;;;11.20
5571;BMP180;2808;51.240;6.794;2023-02-22T09:52:31;100698.00;;;11.10
5571;BMP180;2808;51.240;6.794;2023-02-22T09:55:07;100693.00;;;11.10
5571;BMP180;2808;51.240;6.794;2023-02-22T09:57:39;100700.00;;;11.00
5571;BMP180;2808;51.240;6.794;2023-02-22T10:00:14;100697.00;;;11.00
5571;BMP180;2808;51.240;6.794;2023-02-22T10:02:48;100688.00;;;11.20
5571;BMP180;2808;51.240;6.794;2023-02-22T10:05:21;100696.00;;;11.00
5571;BMP180;2808;51.240;6.794;2023-02-22T10:07:57;100690.00;;;11.10
5571;BMP180;2808;51.240;6.794;2023-02-22T10:10:29;100692.00;;;11.10
5571;BMP180;2808;51.240;6.794;2023-02-22T10:13:04;100694.00;;;11.30
5571;BMP180;2808;51.240;6.794;2023-02-22T10:15:46;100690.00;;;11.40
5571;BMP180;2808;51.240;6.794;2023-02-22T10:18:41;100689.00;;;11.50
5571;BMP180;2808;51.240;6.794;2023-02-22T10:24:16;100680.00;;;11.70
5571;BMP180;2808;51.240;6.794;2023-02-22T10:26:50;100676.00;;;11.80
5571;BMP180;2808;51.240;6.794;2023-02-22T10:29:28;100671.00;;;11.90
5571;BMP180;2808;51.240;6.794;2023-02-22T10:32:14;100671.00;;;11.90
5571;BMP180;2808;51.240;6.794;2023-02-22T10:34:46;100669.00;;;11.80
5571;BMP180;2808;51.240;6.794;2023-02-22T10:37:24;100671.00;;;11.80
5571;BMP180;2808;51.240;6.794;2023-02-22T10:39:58;100668.00;;;11.80
5571;BMP180;2808;51.240;6.794;2023-02-22T10:42:30;100657.00;;;11.90
5571;BMP180;2808;51.240;6.794;2023-02-22T10:45:00;100656.00;;;12.00
5571;BMP180;2808;51.240;6.794;2023-02-22T10:47:36;100643.00;;;12.10
5571;BMP180;2808;51.240;6.794;2023-02-22T10:50:04;100656.00;;;12.00
5571;BMP180;2808;51.240;6.794;2023-02-22T10:52:34;100649.00;;;12.00
5571;BMP180;2808;51.240;6.794;2023-02-22T10:55:02;100646.00;;;12.10
5571;BMP180;2808;51.240;6.794;2023-02-22T10:57:34;100656.00;;;12.20
5571;BMP180;2808;51.240;6.794;2023-02-22T11:00:17;100648.00;;;12.20
5571;BMP180;2808;51.240;6.794;2023-02-22T11:02:55;100642.00;;;12.20
5571;BMP180;2808;51.240;6.794;2023-02-22T11:05:29;100642.00;;;12.20
5571;BMP180;2808;51.240;6.794;2023-02-22T11:08:17;100638.00;;;12.20
5571;BMP180;2808;51.240;6.794;2023-02-22T11:10:49;100643.00;;;12.20
5571;BMP180;2808;51.240;6.794;2023-02-22T11:13:24;100640.00;;;12.20
5571;BMP180;2808;51.240;6.794;2023-02-22T11:15:59;100635.00;;;12.30
5571;BMP180;2808;51.240;6.794;2023-02-22T11:18:30;100636.00;;;12.40
5571;BMP180;2808;51.240;6.794;2023-02-22T11:21:00;100638.00;;;12.40
5571;BMP180;2808;51.240;6.794;2023-02-22T11:23:28;100632.00;;;12.50
5571;BMP180;2808;51.240;6.794;2023-02-22T11:26:06;100632.00;;;12.50
5571;BMP180;2808;51.240;6.794;2023-02-22T11:28:36;100633.00;;;12.60
5571;BMP180;2808;51.240;6.794;2023-02-22T11:31:14;100634.00;;;12.60
5571;BMP180;2808;51.240;6.794;2023-02-22T11:33:49;100629.00;;;12.60
5571;BMP180;2808;51.240;6.794;2023-02-22T11:36:30;100627.00;;;12.50
5571;BMP180;2808;51.240;6.794;2023-02-22T11:38:58;100626.00;;;12.60
5571;BMP180;2808;51.240;6.794;2023-02-22T11:41:31;100625.00;;;12.70
5571;BMP180;2808;51.240;6.794;2023-02-22T11:44:19;100622.00;;;12.80
5571;BMP180;2808;51.240;6.794;2023-02-22T11:46:49;100612.00;;;13.00
5571;BMP180;2808;51.240;6.794;2023-02-22T11:49:22;100616.00;;;13.00
5571;BMP180;2808;51.240;6.794;2023-02-22T11:52:11;100612.00;;;13.00
5571;BMP180;2808;51.240;6.794;2023-02-22T11:54:48;100607.00;;;13.00
5571;BMP180;2808;51.240;6.794;2023-02-22T11:57:44;100604.00;;;13.00
5571;BMP180;2808;51.240;6.794;2023-02-22T12:00:18;100603.00;;;13.10
5571;BMP180;2808;51.240;6.794;2023-02-22T12:03:27;100603.00;;;13.20
5571;BMP180;2808;51.240;6.794;2023-02-22T12:06:10;100601.00;;;13.20
5571;BMP180;2808;51.240;6.794;2023-02-22T12:08:52;100605.00;;;13.30
5571;BMP180;2808;51.240;6.794;2023-02-22T12:11:26;100602.00;;;13.40
5571;BMP180;2808;51.240;6.794;2023-02-22T12:14:15;100609.00;;;13.40
5571;BMP180;2808;51.240;6.794;2023-02-22T12:19:49;100604.00;;;13.50
5571;BMP180;2808;51.240;6.794;2023-02-22T12:22:24;100603.00;;;13.60
5571;BMP180;2808;51.240;6.794;2023-02-22T12:24:55;100604.00;;;13.70
5571;BMP180;2808;51.240;6.794;2023-02-22T12:27:29;100606.00;;;13.70
5571;BMP180;2808;51.240;6.794;2023-02-22T12:30:02;100593.00;;;13.70
5571;BMP180;2808;51.240;6.794;2023-02-22T12:32:36;100603.00;;;13.60
5571;BMP180;2808;51.240;6.794;2023-02-22T12:35:14;100594.00;;;13.60
5571;BMP180;2808;51.240;6.794;2023-02-22T12:37:51;100598.00;;;13.60
5571;BMP180;2808;51.240;6.794;2023-02-22T12:40:29;100605.00;;;13.70
5571;BMP180;2808;51.240;6.794;2023-02-22T12:43:03;100597.00;;;13.70
5571;BMP180;2808;51.240;6.794;2023-02-22T12:45:39;100599.00;;;13.70
5571;BMP180;2808;51.240;6.794;2023-02-22T12:48:28;100586.00;;;13.70
5571;BMP180;2808;51.240;6.794;2023-02-22T12:51:04;100599.00;;;13.70
5571;BMP180;2808;51.240;6.794;2023-02-22T12:53:35;100589.00;;;13.80
5571;BMP180;2808;51.240;6.794;2023-02-22T12:56:33;100593.00;;;13.80
5571;BMP180;2808;51.240;6.794;2023-02-22T12:59:08;100597.00;;;13.90
5571;BMP180;2808;51.240;6.794;2023-02-22T13:01:53;100589.00;;;14.00
5571;BMP180;2808;51.240;6.794;2023-02-22T13:04:30;100591.00;;;14.00
5571;BMP180;2808;51.240;6.794;2023-02-22T13:07:17;100587.00;;;14.10
5571;BMP180;2808;51.240;6.794;2023-02-22T13:10:11;100587.00;;;14.10
5571;BMP180;2808;51.240;6.794;2023-02-22T13:12:50;100586.00;;;14.10
5571;BMP180;2808;51.240;6.794;2023-02-22T13:15:31;100579.00;;;14.10
5571;BMP180;2808;51.240;6.794;2023-02-22T13:21:54;100582.00;;;14.10
5571;BMP180;2808;51.240;6.794;2023-02-22T13:24:48;100583.00;;;14.10
5571;BMP180;2808;51.240;6.794;2023-02-22T13:27:21;100583.00;;;14.10
5571;BMP180;2808;51.240;6.794;2023-02-22T13:29:57;100589.00;;;14.10
5571;BMP180;2808;51.240;6.794;2023-02-22T13:32:37;100579.00;;;14.10
5571;BMP180;2808;51.240;6.794;2023-02-22T13:35:23;100579.00;;;14.20
5571;BMP180;2808;51.240;6.794;2023-02-22T13:41:14;100578.00;;;14.30
5571;BMP180;2808;51.240;6.794;2023-02-22T13:44:30;100588.00;;;14.30
5571;BMP180;2808;51.240;6.794;2023-02-22T13:50:50;100574.00;;;14.50
5571;BMP180;2808;51.240;6.794;2023-02-22T13:53:23;100571.00;;;14.50
5571;BMP180;2808;51.240;6.794;2023-02-22T13:55:59;100578.00;;;14.50
5571;BMP180;2808;51.240;6.794;2023-02-22T13:58:29;100568.00;;;14.60
5571;BMP180;2808;51.240;6.794;2023-02-22T14:00:58;100573.00;;;14.60
5571;BMP180;2808;51.240;6.794;2023-02-22T14:03:34;100568.00;;;14.70
5571;BMP180;2808;51.240;6.794;2023-02-22T14:06:10;100571.00;;;14.70
5571;BMP180;2808;51.240;6.794;2023-02-22T14:08:59;100572.00;;;14.80
5571;BMP180;2808;51.240;6.794;2023-02-22T14:11:48;100573.00;;;14.80
5571;BMP180;2808;51.240;6.794;2023-02-22T14:14:27;100573.00;;;14.80
5571;BMP180;2808;51.240;6.794;2023-02-22T14:20:19;100573.00;;;14.80
5571;BMP180;2808;51.240;6.794;2023-02-22T14:22:48;100568.00;;;14.80
5571;BMP180;2808;51.240;6.794;2023-02-22T14:25:38;100568.00;;;14.70
5571;BMP180;2808;51.240;6.794;2023-02-22T14:28:09;100579.00;;;14.70
5571;BMP180;2808;51.240;6.794;2023-02-22T14:31:07;100568.00;;;14.70
5571;BMP180;2808;51.240;6.794;2023-02-22T14:33:58;100571.00;;;14.70
5571;BMP180;2808;51.240;6.794;2023-02-22T14:36:29;100571.00;;;14.70
5571;BMP180;2808;51.240;6.794;2023-02-22T14:39:09;100565.00;;;14.60
5571;BMP180;2808;51.240;6.794;2023-02-22T14:41:42;100565.00;;;14.60
5571;BMP180;2808;51.240;6.794;2023-02-22T14:44:13;100581.00;;;14.60
5571;BMP180;2808;51.240;6.794;2023-02-22T14:46:51;100567.00;;;14.60
5571;BMP180;2808;51.240;6.794;2023-02-22T14:49:22;100575.00;;;14.60
5571;BMP180;2808;51.240;6.794;2023-02-22T14:51:58;100577.00;;;14.70
5571;BMP180;2808;51.240;6.794;2023-02-22T14:54:34;100575.00;;;14.80
5571;BMP180;2808;51.240;6.794;2023-02-22T14:57:11;100571.00;;;14.80
5571;BMP180;2808;51.240;6.794;2023-02-22T15:00:03;100571.00;;;14.80
5571;BMP180;2808;51.240;6.794;2023-02-22T15:02:47;100563.00;;;14.80
5571;BMP180;2808;51.240;6.794;2023-02-22T15:05:19;100577.00;;;14.80
5571;BMP180;2808;51.240;6.794;2023-02-22T15:07:55;100572.00;;;14.80
5571;BMP180;2808;51.240;6.794;2023-02-22T15:10:39;100573.00;;;14.80
5571;BMP180;2808;51.240;6.794;2023-02-22T15:13:20;100576.00;;;14.80
5571;BMP180;2808;51.240;6.794;2023-02-22T15:15:53;100579.00;;;14.70
5571;BMP180;2808;51.240;6.794;2023-02-22T15:18:32;100577.00;;;14.70
5571;BMP180;2808;51.240;6.794;2023-02-22T15:21:11;100581.00;;;14.70
5571;BMP180;2808;51.240;6.794;2023-02-22T15:23:49;100574.00;;;14.60
5571;BMP180;2808;51.240;6.794;2023-02-22T15:26:22;100577.00;;;14.50
5571;BMP180;2808;51.240;6.794;2023-02-22T15:28:53;100573.00;;;14.50